Allisona, Tennessee
Current Conditions -  °F | °C
As of 5:53 PM on Wednesday 26 Nov 2014 (Local Time) from KBNA Reporting Station
Light Rain Light Rain  
Wind Chill: 37°   Ceiling: 3100
Heat Index: 44°   Visibility: 8mi
Dew Point: 36°   Wind: 14mph
Humidity: 73%   Direction: 210°SSW
Pressure: 30.03"   Gusts: 22mph
Location:  35.7808°N, 86.7221°W
Report Text: KBNA 262353Z 21012G19KT 8SM -RA OVC031 07/02 A3003 RMK AO2 RAB12 SLP173 P0001 60001 T00670022 10106 20067 53002
Loading
Personal Weather Stations






























Interactive Weather Map New forecast layout! Learn more

10-Day Weather Forecast

Advertisements
Track Severe Weather on mobile